createdAt,value
2022-11-29T06:16:29.986Z,3.52
2022-11-29T06:26:29.995Z,3.49
2022-11-29T06:36:29.845Z,3.50
2022-11-29T06:46:30.076Z,3.51
2022-11-29T06:56:30.087Z,3.49
2022-11-29T07:06:29.951Z,3.50
2022-11-29T07:16:30.056Z,3.52
2022-11-29T07:26:29.967Z,3.57
2022-11-29T07:36:29.955Z,3.56
2022-11-29T07:46:30.067Z,3.60
2022-11-29T07:56:30.054Z,3.60
2022-11-29T08:06:29.940Z,3.61
2022-11-29T08:16:30.139Z,3.64
2022-11-29T08:26:31.851Z,3.64
2022-11-29T08:36:30.029Z,3.67
2022-11-29T08:46:30.104Z,3.69
2022-11-29T08:57:16.668Z,3.73
2022-11-29T09:06:30.110Z,3.74
2022-11-29T09:16:30.105Z,3.77
2022-11-29T09:26:30.160Z,3.87
2022-11-29T09:36:30.102Z,3.87
2022-11-29T09:46:29.959Z,3.98
2022-11-29T09:56:30.076Z,4.08
2022-11-29T10:06:30.111Z,4.22
2022-11-29T10:16:30.129Z,4.28
2022-11-29T10:26:35.003Z,4.28
2022-11-29T10:36:30.198Z,4.36
2022-11-29T10:46:29.980Z,4.38
2022-11-29T10:56:30.110Z,4.35
2022-11-29T11:06:30.175Z,4.22
2022-11-29T11:16:34.278Z,4.30
2022-11-29T11:26:30.220Z,4.37
2022-11-29T11:36:30.069Z,4.40
2022-11-29T11:46:30.220Z,4.52
2022-11-29T11:56:30.089Z,4.58
2022-11-29T12:06:29.953Z,4.66
2022-11-29T12:16:30.042Z,4.77
2022-11-29T12:26:55.929Z,4.75
2022-11-29T12:36:30.049Z,4.76
2022-11-29T12:46:30.167Z,4.87
2022-11-29T12:56:30.030Z,4.93
2022-11-29T13:06:29.939Z,4.94
2022-11-29T13:26:29.973Z,4.88
2022-11-29T13:36:30.081Z,4.96
2022-11-29T13:46:29.952Z,4.89
2022-11-29T13:56:30.061Z,4.89
2022-11-29T14:06:30.044Z,4.84
2022-11-29T14:16:30.027Z,4.81
2022-11-29T14:26:30.056Z,4.82
2022-11-29T14:36:30.017Z,4.79
2022-11-29T14:46:30.226Z,4.76
2022-11-29T14:56:29.987Z,4.69
2022-11-29T15:06:30.107Z,4.64
2022-11-29T15:16:30.210Z,4.55
2022-11-29T15:26:30.028Z,4.53
2022-11-29T15:36:30.022Z,4.45
2022-11-29T15:46:29.955Z,4.42
2022-11-29T15:56:30.136Z,4.36
2022-11-29T16:06:30.195Z,4.33
2022-11-29T16:16:30.236Z,4.32
2022-11-29T16:26:30.221Z,4.30
2022-11-29T16:36:30.185Z,4.31
2022-11-29T16:46:30.018Z,4.28
2022-11-29T16:56:30.001Z,4.26
2022-11-29T17:06:30.188Z,4.26
2022-11-29T17:16:30.262Z,4.25
2022-11-29T17:26:30.338Z,4.22
2022-11-29T17:36:30.111Z,4.19
2022-11-29T17:46:30.234Z,4.16
2022-11-29T17:56:30.304Z,4.16
2022-11-29T18:06:30.162Z,4.12
2022-11-29T18:16:30.404Z,4.12
2022-11-29T18:26:30.250Z,4.10
2022-11-29T18:36:30.339Z,4.08
2022-11-29T18:46:30.544Z,4.05
2022-11-29T18:56:30.628Z,4.04
2022-11-29T19:06:35.612Z,4.02
2022-11-29T19:16:30.796Z,3.99
